sensor_id;sensor_type;location;lat;lon;timestamp;temperature;humidity
9828;DHT22;4953;48.952;9.442;2022-10-16T04:01:25;16.00;99.90
9828;DHT22;4953;48.952;9.442;2022-10-16T04:03:52;15.90;99.90
9828;DHT22;4953;48.952;9.442;2022-10-16T04:06:18;15.90;99.90
9828;DHT22;4953;48.952;9.442;2022-10-16T04:08:45;15.90;99.90
9828;DHT22;4953;48.952;9.442;2022-10-16T04:11:12;15.90;99.90
9828;DHT22;4953;48.952;9.442;2022-10-16T04:13:39;15.90;99.90
9828;DHT22;4953;48.952;9.442;2022-10-16T04:16:06;15.90;99.90
9828;DHT22;4953;48.952;9.442;2022-10-16T04:18:34;15.90;99.90
9828;DHT22;4953;48.952;9.442;2022-10-16T04:21:03;15.90;99.90
9828;DHT22;4953;48.952;9.442;2022-10-16T04:23:30;15.90;99.90
9828;DHT22;4953;48.952;9.442;2022-10-16T04:25:57;15.90;99.90
9828;DHT22;4953;48.952;9.442;2022-10-16T04:28:23;15.90;99.90
9828;DHT22;4953;48.952;9.442;2022-10-16T04:30:50;15.80;99.90
9828;DHT22;4953;48.952;9.442;2022-10-16T04:33:17;15.80;99.90
9828;DHT22;4953;48.952;9.442;2022-10-16T04:35:45;15.80;99.90
9828;DHT22;4953;48.952;9.442;2022-10-16T04:38:12;15.80;99.90
9828;DHT22;4953;48.952;9.442;2022-10-16T04:40:38;15.80;99.90
9828;DHT22;4953;48.952;9.442;2022-10-16T04:43:05;15.80;99.90
9828;DHT22;4953;48.952;9.442;2022-10-16T04:45:32;15.80;99.90
9828;DHT22;4953;48.952;9.442;2022-10-16T04:47:59;15.80;99.90
9828;DHT22;4953;48.952;9.442;2022-10-16T04:50:26;15.70;99.90
9828;DHT22;4953;48.952;9.442;2022-10-16T04:52:54;15.70;99.90
9828;DHT22;4953;48.952;9.442;2022-10-16T04:55:21;15.70;99.90
9828;DHT22;4953;48.952;9.442;2022-10-16T04:57:48;15.70;99.90
9828;DHT22;4953;48.952;9.442;2022-10-16T05:00:15;15.70;99.90
9828;DHT22;4953;48.952;9.442;2022-10-16T05:02:42;15.70;99.90
9828;DHT22;4953;48.952;9.442;2022-10-16T05:05:09;15.70;99.90
9828;DHT22;4953;48.952;9.442;2022-10-16T05:07:35;15.70;99.90
9828;DHT22;4953;48.952;9.442;2022-10-16T05:10:04;15.70;99.90
9828;DHT22;4953;48.952;9.442;2022-10-16T05:12:31;15.70;99.90
9828;DHT22;4953;48.952;9.442;2022-10-16T05:14:58;15.60;99.90
9828;DHT22;4953;48.952;9.442;2022-10-16T05:17:25;15.70;99.90
9828;DHT22;4953;48.952;9.442;2022-10-16T05:19:52;15.70;99.90
9828;DHT22;4953;48.952;9.442;2022-10-16T05:22:19;15.60;99.90
9828;DHT22;4953;48.952;9.442;2022-10-16T05:24:46;15.60;99.90
9828;DHT22;4953;48.952;9.442;2022-10-16T05:27:14;15.60;99.90
9828;DHT22;4953;48.952;9.442;2022-10-16T05:29:44;15.60;99.90
9828;DHT22;4953;48.952;9.442;2022-10-16T05:32:11;15.60;99.90
9828;DHT22;4953;48.952;9.442;2022-10-16T05:34:38;15.60;99.90
9828;DHT22;4953;48.952;9.442;2022-10-16T05:37:05;15.60;99.90
9828;DHT22;4953;48.952;9.442;2022-10-16T05:39:32;15.60;99.90
9828;DHT22;4953;48.952;9.442;2022-10-16T05:41:58;15.60;99.90
9828;DHT22;4953;48.952;9.442;2022-10-16T05:44:26;15.60;99.90
9828;DHT22;4953;48.952;9.442;2022-10-16T05:46:53;15.60;99.90
9828;DHT22;4953;48.952;9.442;2022-10-16T05:49:20;15.60;99.90
9828;DHT22;4953;48.952;9.442;2022-10-16T05:51:47;15.60;99.90
9828;DHT22;4953;48.952;9.442;2022-10-16T05:54:14;15.50;99.90
9828;DHT22;4953;48.952;9.442;2022-10-16T05:56:41;15.50;99.90
9828;DHT22;4953;48.952;9.442;2022-10-16T05:59:07;15.50;99.90
9828;DHT22;4953;48.952;9.442;2022-10-16T06:01:35;15.50;99.90
9828;DHT22;4953;48.952;9.442;2022-10-16T06:04:02;15.50;99.90
9828;DHT22;4953;48.952;9.442;2022-10-16T06:06:29;15.40;99.90
9828;DHT22;4953;48.952;9.442;2022-10-16T06:08:57;15.50;99.90
9828;DHT22;4953;48.952;9.442;2022-10-16T06:11:27;15.50;99.90
9828;DHT22;4953;48.952;9.442;2022-10-16T06:13:55;15.50;99.90
9828;DHT22;4953;48.952;9.442;2022-10-16T06:16:23;15.50;99.90
9828;DHT22;4953;48.952;9.442;2022-10-16T06:18:52;15.50;99.90
9828;DHT22;4953;48.952;9.442;2022-10-16T06:21:21;15.40;99.90
9828;DHT22;4953;48.952;9.442;2022-10-16T06:23:50;15.40;99.90
9828;DHT22;4953;48.952;9.442;2022-10-16T06:26:19;15.50;99.90
9828;DHT22;4953;48.952;9.442;2022-10-16T06:28:46;15.50;99.90
9828;DHT22;4953;48.952;9.442;2022-10-16T06:31:14;15.40;99.90
9828;DHT22;4953;48.952;9.442;2022-10-16T06:33:41;15.50;99.90
9828;DHT22;4953;48.952;9.442;2022-10-16T06:36:10;15.50;99.90
9828;DHT22;4953;48.952;9.442;2022-10-16T06:38:38;15.50;99.90
9828;DHT22;4953;48.952;9.442;2022-10-16T06:41:06;15.50;99.90
9828;DHT22;4953;48.952;9.442;2022-10-16T06:43:33;15.50;99.90
9828;DHT22;4953;48.952;9.442;2022-10-16T06:46:02;15.50;99.90
9828;DHT22;4953;48.952;9.442;2022-10-16T06:48:29;15.50;99.90
9828;DHT22;4953;48.952;9.442;2022-10-16T06:50:57;15.50;99.90
9828;DHT22;4953;48.952;9.442;2022-10-16T06:53:27;15.60;99.90
9828;DHT22;4953;48.952;9.442;2022-10-16T06:55:54;15.50;99.90
9828;DHT22;4953;48.952;9.442;2022-10-16T06:58:21;15.60;99.90
9828;DHT22;4953;48.952;9.442;2022-10-16T07:00:48;15.50;99.90
9828;DHT22;4953;48.952;9.442;2022-10-16T07:03:15;15.60;99.90
9828;DHT22;4953;48.952;9.442;2022-10-16T07:05:42;15.60;99.90
9828;DHT22;4953;48.952;9.442;2022-10-16T07:08:09;15.60;99.90
9828;DHT22;4953;48.952;9.442;2022-10-16T07:10:37;15.60;99.90
9828;DHT22;4953;48.952;9.442;2022-10-16T07:13:04;15.60;99.90
9828;DHT22;4953;48.952;9.442;2022-10-16T07:15:33;15.60;99.90
9828;DHT22;4953;48.952;9.442;2022-10-16T07:18:00;15.60;99.90
9828;DHT22;4953;48.952;9.442;2022-10-16T07:20:26;15.60;99.90
9828;DHT22;4953;48.952;9.442;2022-10-16T07:22:53;15.70;99.90
9828;DHT22;4953;48.952;9.442;2022-10-16T07:25:20;15.70;99.90
9828;DHT22;4953;48.952;9.442;2022-10-16T07:27:48;15.70;99.90
9828;DHT22;4953;48.952;9.442;2022-10-16T07:30:15;15.80;99.90
9828;DHT22;4953;48.952;9.442;2022-10-16T07:32:41;15.70;99.90
9828;DHT22;4953;48.952;9.442;2022-10-16T07:35:08;15.80;99.90
9828;DHT22;4953;48.952;9.442;2022-10-16T07:37:35;15.80;99.90
9828;DHT22;4953;48.952;9.442;2022-10-16T07:40:02;15.80;99.90
9828;DHT22;4953;48.952;9.442;2022-10-16T07:42:29;15.80;99.90
9828;DHT22;4953;48.952;9.442;2022-10-16T07:44:57;15.80;99.90
9828;DHT22;4953;48.952;9.442;2022-10-16T07:47:24;15.90;99.90
9828;DHT22;4953;48.952;9.442;2022-10-16T07:49:51;15.90;99.90
9828;DHT22;4953;48.952;9.442;2022-10-16T07:52:18;15.90;99.90
9828;DHT22;4953;48.952;9.442;2022-10-16T07:54:44;15.90;99.90
9828;DHT22;4953;48.952;9.442;2022-10-16T07:57:11;16.00;99.90
9828;DHT22;4953;48.952;9.442;2022-10-16T07:59:44;15.90;99.90
9828;DHT22;4953;48.952;9.442;2022-10-16T08:02:12;16.00;99.90
9828;DHT22;4953;48.952;9.442;2022-10-16T08:04:39;16.00;99.90
9828;DHT22;4953;48.952;9.442;2022-10-16T08:07:07;16.00;99.90
9828;DHT22;4953;48.952;9.442;2022-10-16T08:09:34;16.00;99.90
9828;DHT22;4953;48.952;9.442;2022-10-16T08:12:00;16.10;99.90
9828;DHT22;4953;48.952;9.442;2022-10-16T08:14:27;16.10;99.90
9828;DHT22;4953;48.952;9.442;2022-10-16T08:16:54;16.10;99.90
9828;DHT22;4953;48.952;9.442;2022-10-16T08:19:22;16.10;99.90
9828;DHT22;4953;48.952;9.442;2022-10-16T08:21:49;16.10;99.90
9828;DHT22;4953;48.952;9.442;2022-10-16T08:24:16;16.10;99.90
9828;DHT22;4953;48.952;9.442;2022-10-16T08:26:42;16.20;99.90
9828;DHT22;4953;48.952;9.442;2022-10-16T08:29:09;16.20;99.90
9828;DHT22;4953;48.952;9.442;2022-10-16T08:31:36;16.20;99.90
9828;DHT22;4953;48.952;9.442;2022-10-16T08:34:03;16.30;99.90
9828;DHT22;4953;48.952;9.442;2022-10-16T08:36:31;16.40;99.90
9828;DHT22;4953;48.952;9.442;2022-10-16T08:38:58;16.40;99.90
9828;DHT22;4953;48.952;9.442;2022-10-16T08:44:52;16.60;99.90
9828;DHT22;4953;48.952;9.442;2022-10-16T08:47:25;16.70;99.90
9828;DHT22;4953;48.952;9.442;2022-10-16T08:49:57;16.80;99.90
9828;DHT22;4953;48.952;9.442;2022-10-16T08:52:29;17.00;99.90
9828;DHT22;4953;48.952;9.442;2022-10-16T08:54:58;17.10;99.90
9828;DHT22;4953;48.952;9.442;2022-10-16T08:57:26;17.20;99.90
9828;DHT22;4953;48.952;9.442;2022-10-16T08:59:53;17.30;99.90
9828;DHT22;4953;48.952;9.442;2022-10-16T09:02:30;17.30;99.90
9828;DHT22;4953;48.952;9.442;2022-10-16T09:05:16;17.40;99.90
9828;DHT22;4953;48.952;9.442;2022-10-16T09:07:54;17.50;99.90
9828;DHT22;4953;48.952;9.442;2022-10-16T09:10:33;17.60;99.90
9828;DHT22;4953;48.952;9.442;2022-10-16T09:13:13;17.60;99.90
9828;DHT22;4953;48.952;9.442;2022-10-16T09:15:47;17.70;99.90
9828;DHT22;4953;48.952;9.442;2022-10-16T09:18:20;17.70;99.90
9828;DHT22;4953;48.952;9.442;2022-10-16T09:20:52;17.70;99.90
9828;DHT22;4953;48.952;9.442;2022-10-16T09:23:26;17.70;99.90
9828;DHT22;4953;48.952;9.442;2022-10-16T09:25:53;17.80;99.90
9828;DHT22;4953;48.952;9.442;2022-10-16T09:28:20;17.90;99.90
9828;DHT22;4953;48.952;9.442;2022-10-16T09:30:47;17.80;99.90
9828;DHT22;4953;48.952;9.442;2022-10-16T09:33:17;17.90;99.90
9828;DHT22;4953;48.952;9.442;2022-10-16T09:35:45;18.00;99.90
9828;DHT22;4953;48.952;9.442;2022-10-16T09:38:26;18.00;99.90
9828;DHT22;4953;48.952;9.442;2022-10-16T09:40:54;18.10;99.90
9828;DHT22;4953;48.952;9.442;2022-10-16T09:43:23;18.10;99.90
9828;DHT22;4953;48.952;9.442;2022-10-16T09:45:57;18.10;99.90
9828;DHT22;4953;48.952;9.442;2022-10-16T09:48:35;18.30;99.90
9828;DHT22;4953;48.952;9.442;2022-10-16T09:51:04;18.30;99.90
9828;DHT22;4953;48.952;9.442;2022-10-16T09:53:43;18.40;99.90
9828;DHT22;4953;48.952;9.442;2022-10-16T09:56:11;18.70;99.90
9828;DHT22;4953;48.952;9.442;2022-10-16T09:58:42;18.90;99.90
9828;DHT22;4953;48.952;9.442;2022-10-16T10:01:13;19.10;99.90
9828;DHT22;4953;48.952;9.442;2022-10-16T10:03:42;19.20;99.90
9828;DHT22;4953;48.952;9.442;2022-10-16T10:06:28;19.40;99.90
9828;DHT22;4953;48.952;9.442;2022-10-16T10:09:04;19.80;99.90
9828;DHT22;4953;48.952;9.442;2022-10-16T10:11:49;19.80;99.90
9828;DHT22;4953;48.952;9.442;2022-10-16T10:14:28;20.10;99.90
9828;DHT22;4953;48.952;9.442;2022-10-16T10:17:17;20.40;99.90
9828;DHT22;4953;48.952;9.442;2022-10-16T10:19:50;20.60;99.90
9828;DHT22;4953;48.952;9.442;2022-10-16T10:22:22;20.80;99.90
9828;DHT22;4953;48.952;9.442;2022-10-16T10:25:00;21.00;99.90
9828;DHT22;4953;48.952;9.442;2022-10-16T10:27:42;21.30;99.90
9828;DHT22;4953;48.952;9.442;2022-10-16T10:30:15;21.60;99.90
9828;DHT22;4953;48.952;9.442;2022-10-16T10:32:51;21.60;99.90
9828;DHT22;4953;48.952;9.442;2022-10-16T10:35:27;21.60;99.90
9828;DHT22;4953;48.952;9.442;2022-10-16T10:38:03;21.60;99.90
9828;DHT22;4953;48.952;9.442;2022-10-16T10:40:44;21.50;99.90
9828;DHT22;4953;48.952;9.442;2022-10-16T10:43:24;21.60;99.90
9828;DHT22;4953;48.952;9.442;2022-10-16T10:45:59;22.10;99.90
9828;DHT22;4953;48.952;9.442;2022-10-16T10:51:34;22.50;99.90
9828;DHT22;4953;48.952;9.442;2022-10-16T10:54:14;22.40;99.90
9828;DHT22;4953;48.952;9.442;2022-10-16T10:56:51;22.40;99.90
9828;DHT22;4953;48.952;9.442;2022-10-16T10:59:38;22.50;99.90
9828;DHT22;4953;48.952;9.442;2022-10-16T11:02:15;22.40;99.90
9828;DHT22;4953;48.952;9.442;2022-10-16T11:07:51;22.30;99.90
9828;DHT22;4953;48.952;9.442;2022-10-16T11:10:22;22.30;99.90
9828;DHT22;4953;48.952;9.442;2022-10-16T11:12:53;22.40;99.90
9828;DHT22;4953;48.952;9.442;2022-10-16T11:15:27;22.40;99.90
9828;DHT22;4953;48.952;9.442;2022-10-16T11:17:59;22.40;99.90
9828;DHT22;4953;48.952;9.442;2022-10-16T11:20:31;22.40;99.90
9828;DHT22;4953;48.952;9.442;2022-10-16T11:23:02;22.50;99.90
9828;DHT22;4953;48.952;9.442;2022-10-16T11:25:32;22.60;99.90
9828;DHT22;4953;48.952;9.442;2022-10-16T11:28:06;22.60;99.90
9828;DHT22;4953;48.952;9.442;2022-10-16T11:30:41;22.60;99.90
9828;DHT22;4953;48.952;9.442;2022-10-16T11:33:24;22.60;99.90
9828;DHT22;4953;48.952;9.442;2022-10-16T11:35:55;22.60;99.90
9828;DHT22;4953;48.952;9.442;2022-10-16T11:38:30;23.20;99.90
9828;DHT22;4953;48.952;9.442;2022-10-16T11:41:02;23.30;99.90
9828;DHT22;4953;48.952;9.442;2022-10-16T11:43:36;23.30;99.90
9828;DHT22;4953;48.952;9.442;2022-10-16T11:46:10;23.50;99.90
9828;DHT22;4953;48.952;9.442;2022-10-16T11:48:43;23.50;99.90
9828;DHT22;4953;48.952;9.442;2022-10-16T11:51:17;23.60;99.90
9828;DHT22;4953;48.952;9.442;2022-10-16T11:53:53;23.90;99.90
9828;DHT22;4953;48.952;9.442;2022-10-16T11:56:24;24.20;99.90
9828;DHT22;4953;48.952;9.442;2022-10-16T11:58:58;24.50;99.90
9828;DHT22;4953;48.952;9.442;2022-10-16T12:01:31;24.60;99.90
9828;DHT22;4953;48.952;9.442;2022-10-16T12:04:06;24.70;99.90
9828;DHT22;4953;48.952;9.442;2022-10-16T12:06:42;24.80;99.90
9828;DHT22;4953;48.952;9.442;2022-10-16T12:09:14;25.20;99.90
9828;DHT22;4953;48.952;9.442;2022-10-16T12:11:42;25.20;99.90
9828;DHT22;4953;48.952;9.442;2022-10-16T12:14:32;25.60;99.90
9828;DHT22;4953;48.952;9.442;2022-10-16T12:17:01;25.80;99.90
9828;DHT22;4953;48.952;9.442;2022-10-16T12:19:31;25.70;99.90
9828;DHT22;4953;48.952;9.442;2022-10-16T12:21:59;25.70;99.90
9828;DHT22;4953;48.952;9.442;2022-10-16T12:24:35;25.50;99.90
9828;DHT22;4953;48.952;9.442;2022-10-16T12:27:04;25.40;99.90
9828;DHT22;4953;48.952;9.442;2022-10-16T12:29:36;25.40;99.90
9828;DHT22;4953;48.952;9.442;2022-10-16T12:32:05;25.70;99.90
9828;DHT22;4953;48.952;9.442;2022-10-16T12:34:38;26.00;99.90
9828;DHT22;4953;48.952;9.442;2022-10-16T12:37:13;26.20;99.90
9828;DHT22;4953;48.952;9.442;2022-10-16T12:39:41;26.00;99.90
9828;DHT22;4953;48.952;9.442;2022-10-16T12:42:22;25.80;99.90
9828;DHT22;4953;48.952;9.442;2022-10-16T12:44:50;25.80;99.90
9828;DHT22;4953;48.952;9.442;2022-10-16T12:47:22;25.70;99.90
9828;DHT22;4953;48.952;9.442;2022-10-16T12:49:51;25.80;99.90
9828;DHT22;4953;48.952;9.442;2022-10-16T12:52:34;25.90;99.90
9828;DHT22;4953;48.952;9.442;2022-10-16T12:55:01;26.00;99.90
9828;DHT22;4953;48.952;9.442;2022-10-16T12:57:39;25.90;99.90
9828;DHT22;4953;48.952;9.442;2022-10-16T13:00:18;25.80;99.90
9828;DHT22;4953;48.952;9.442;2022-10-16T13:03:28;25.80;99.90
9828;DHT22;4953;48.952;9.442;2022-10-16T13:06:08;25.80;99.90
9828;DHT22;4953;48.952;9.442;2022-10-16T13:08:53;25.80;99.90
9828;DHT22;4953;48.952;9.442;2022-10-16T13:11:38;25.80;99.90
9828;DHT22;4953;48.952;9.442;2022-10-16T13:14:39;25.90;99.90
9828;DHT22;4953;48.952;9.442;2022-10-16T13:17:15;25.90;99.90
9828;DHT22;4953;48.952;9.442;2022-10-16T13:19:52;26.00;99.90
9828;DHT22;4953;48.952;9.442;2022-10-16T13:22:24;26.00;99.90
9828;DHT22;4953;48.952;9.442;2022-10-16T13:25:08;26.00;99.90
9828;DHT22;4953;48.952;9.442;2022-10-16T13:27:44;25.70;99.90
9828;DHT22;4953;48.952;9.442;2022-10-16T13:30:15;25.50;99.90
9828;DHT22;4953;48.952;9.442;2022-10-16T13:32:46;25.40;99.90
9828;DHT22;4953;48.952;9.442;2022-10-16T13:35:22;25.20;99.90
9828;DHT22;4953;48.952;9.442;2022-10-16T13:37:49;25.10;99.90
9828;DHT22;4953;48.952;9.442;2022-10-16T13:40:21;25.00;99.90
9828;DHT22;4953;48.952;9.442;2022-10-16T13:42:49;25.00;99.90
9828;DHT22;4953;48.952;9.442;2022-10-16T13:45:21;24.90;99.90
9828;DHT22;4953;48.952;9.442;2022-10-16T13:47:49;24.80;99.90
9828;DHT22;4953;48.952;9.442;2022-10-16T13:50:18;24.80;99.90
9828;DHT22;4953;48.952;9.442;2022-10-16T13:52:45;24.70;99.90
9828;DHT22;4953;48.952;9.442;2022-10-16T13:55:13;24.60;99.90
9828;DHT22;4953;48.952;9.442;2022-10-16T13:57:40;24.60;99.90
9828;DHT22;4953;48.952;9.442;2022-10-16T14:00:22;24.60;99.90
9828;DHT22;4953;48.952;9.442;2022-10-16T14:02:57;24.70;99.90
9828;DHT22;4953;48.952;9.442;2022-10-16T14:05:25;24.80;99.90
9828;DHT22;4953;48.952;9.442;2022-10-16T14:07:54;24.80;99.90
9828;DHT22;4953;48.952;9.442;2022-10-16T14:10:24;24.80;99.90
9828;DHT22;4953;48.952;9.442;2022-10-16T14:12:56;24.90;99.90
9828;DHT22;4953;48.952;9.442;2022-10-16T14:15:24;25.00;99.90
9828;DHT22;4953;48.952;9.442;2022-10-16T14:17:53;25.00;99.90
9828;DHT22;4953;48.952;9.442;2022-10-16T14:20:24;25.10;99.90
9828;DHT22;4953;48.952;9.442;2022-10-16T14:22:59;25.20;99.90
9828;DHT22;4953;48.952;9.442;2022-10-16T14:25:29;25.30;99.90
9828;DHT22;4953;48.952;9.442;2022-10-16T14:28:01;25.30;99.90
9828;DHT22;4953;48.952;9.442;2022-10-16T14:30:30;25.30;99.90
9828;DHT22;4953;48.952;9.442;2022-10-16T14:33:00;25.30;99.90
9828;DHT22;4953;48.952;9.442;2022-10-16T14:35:32;25.20;99.90
9828;DHT22;4953;48.952;9.442;2022-10-16T14:38:01;25.20;99.90
9828;DHT22;4953;48.952;9.442;2022-10-16T14:40:30;25.20;99.90
9828;DHT22;4953;48.952;9.442;2022-10-16T14:42:58;25.10;99.90
9828;DHT22;4953;48.952;9.442;2022-10-16T14:45:27;25.00;99.90
9828;DHT22;4953;48.952;9.442;2022-10-16T14:47:56;25.00;99.90
9828;DHT22;4953;48.952;9.442;2022-10-16T14:50:25;24.90;99.90
9828;DHT22;4953;48.952;9.442;2022-10-16T14:52:52;24.80;99.90
9828;DHT22;4953;48.952;9.442;2022-10-16T14:55:19;24.70;99.90
9828;DHT22;4953;48.952;9.442;2022-10-16T14:57:46;24.70;99.90
9828;DHT22;4953;48.952;9.442;2022-10-16T15:00:17;24.60;99.90
9828;DHT22;4953;48.952;9.442;2022-10-16T15:02:44;24.60;99.90
9828;DHT22;4953;48.952;9.442;2022-10-16T15:05:15;24.50;99.90
9828;DHT22;4953;48.952;9.442;2022-10-16T15:07:43;24.40;99.90
9828;DHT22;4953;48.952;9.442;2022-10-16T15:10:11;24.50;99.90
9828;DHT22;4953;48.952;9.442;2022-10-16T15:12:38;24.50;99.90
9828;DHT22;4953;48.952;9.442;2022-10-16T15:15:32;24.40;99.90
9828;DHT22;4953;48.952;9.442;2022-10-16T15:17:59;24.40;99.90
9828;DHT22;4953;48.952;9.442;2022-10-16T15:20:28;24.40;99.90
9828;DHT22;4953;48.952;9.442;2022-10-16T15:22:57;24.40;99.90
9828;DHT22;4953;48.952;9.442;2022-10-16T15:25:33;24.30;99.90
9828;DHT22;4953;48.952;9.442;2022-10-16T15:28:01;24.30;99.90
9828;DHT22;4953;48.952;9.442;2022-10-16T15:30:29;24.20;99.90
9828;DHT22;4953;48.952;9.442;2022-10-16T15:32:56;24.20;99.90
9828;DHT22;4953;48.952;9.442;2022-10-16T15:35:23;24.20;99.90
9828;DHT22;4953;48.952;9.442;2022-10-16T15:37:50;24.10;99.90
9828;DHT22;4953;48.952;9.442;2022-10-16T15:40:19;24.10;99.90
9828;DHT22;4953;48.952;9.442;2022-10-16T15:42:46;24.00;99.90
9828;DHT22;4953;48.952;9.442;2022-10-16T15:45:13;23.90;99.90
9828;DHT22;4953;48.952;9.442;2022-10-16T15:47:41;23.90;99.90
9828;DHT22;4953;48.952;9.442;2022-10-16T15:50:09;23.80;99.90
9828;DHT22;4953;48.952;9.442;2022-10-16T15:52:37;23.70;99.90
9828;DHT22;4953;48.952;9.442;2022-10-16T15:55:05;23.60;99.90
9828;DHT22;4953;48.952;9.442;2022-10-16T15:57:33;23.50;99.90
9828;DHT22;4953;48.952;9.442;2022-10-16T16:00:00;23.40;99.90
9828;DHT22;4953;48.952;9.442;2022-10-16T16:02:27;23.40;99.90
9828;DHT22;4953;48.952;9.442;2022-10-16T16:04:55;23.40;99.90
9828;DHT22;4953;48.952;9.442;2022-10-16T16:07:22;23.30;99.90
9828;DHT22;4953;48.952;9.442;2022-10-16T16:09:49;23.20;99.90
9828;DHT22;4953;48.952;9.442;2022-10-16T16:12:16;23.20;99.90
9828;DHT22;4953;48.952;9.442;2022-10-16T16:14:44;23.10;99.90
9828;DHT22;4953;48.952;9.442;2022-10-16T16:17:14;23.00;99.90
9828;DHT22;4953;48.952;9.442;2022-10-16T16:19:40;22.90;99.90
9828;DHT22;4953;48.952;9.442;2022-10-16T16:22:07;22.90;99.90
9828;DHT22;4953;48.952;9.442;2022-10-16T16:24:34;22.90;99.90
9828;DHT22;4953;48.952;9.442;2022-10-16T16:27:01;22.80;99.90
9828;DHT22;4953;48.952;9.442;2022-10-16T16:29:28;22.70;99.90
9828;DHT22;4953;48.952;9.442;2022-10-16T16:31:56;22.60;99.90
9828;DHT22;4953;48.952;9.442;2022-10-16T16:34:24;22.60;99.90
9828;DHT22;4953;48.952;9.442;2022-10-16T16:36:51;22.50;99.90
9828;DHT22;4953;48.952;9.442;2022-10-16T16:39:18;22.40;99.90
9828;DHT22;4953;48.952;9.442;2022-10-16T16:41:45;22.30;99.90
9828;DHT22;4953;48.952;9.442;2022-10-16T16:44:13;22.20;99.90
9828;DHT22;4953;48.952;9.442;2022-10-16T16:46:41;22.20;99.90
9828;DHT22;4953;48.952;9.442;2022-10-16T16:49:11;22.10;99.90
9828;DHT22;4953;48.952;9.442;2022-10-16T16:51:39;22.10;99.90
9828;DHT22;4953;48.952;9.442;2022-10-16T16:54:06;22.00;99.90
9828;DHT22;4953;48.952;9.442;2022-10-16T16:56:33;21.90;99.90
9828;DHT22;4953;48.952;9.442;2022-10-16T16:59:01;21.90;99.90
9828;DHT22;4953;48.952;9.442;2022-10-16T17:01:28;21.80;99.90
9828;DHT22;4953;48.952;9.442;2022-10-16T17:03:56;21.80;99.90
9828;DHT22;4953;48.952;9.442;2022-10-16T17:06:27;21.60;99.90
9828;DHT22;4953;48.952;9.442;2022-10-16T17:08:55;21.60;99.90
9828;DHT22;4953;48.952;9.442;2022-10-16T17:11:24;21.60;99.90
9828;DHT22;4953;48.952;9.442;2022-10-16T17:13:53;21.50;99.90
9828;DHT22;4953;48.952;9.442;2022-10-16T17:16:20;21.50;99.90
9828;DHT22;4953;48.952;9.442;2022-10-16T17:18:47;21.40;99.90
9828;DHT22;4953;48.952;9.442;2022-10-16T17:21:14;21.40;99.90
9828;DHT22;4953;48.952;9.442;2022-10-16T17:23:42;21.30;99.90
9828;DHT22;4953;48.952;9.442;2022-10-16T17:26:12;21.20;99.90
9828;DHT22;4953;48.952;9.442;2022-10-16T17:28:39;21.10;99.90
9828;DHT22;4953;48.952;9.442;2022-10-16T17:31:08;21.10;99.90
9828;DHT22;4953;48.952;9.442;2022-10-16T17:33:35;21.10;99.90
9828;DHT22;4953;48.952;9.442;2022-10-16T17:36:03;21.00;99.90
9828;DHT22;4953;48.952;9.442;2022-10-16T17:38:30;20.90;99.90
9828;DHT22;4953;48.952;9.442;2022-10-16T17:40:58;20.90;99.90
9828;DHT22;4953;48.952;9.442;2022-10-16T17:43:25;20.80;99.90
9828;DHT22;4953;48.952;9.442;2022-10-16T17:45:52;20.70;99.90
9828;DHT22;4953;48.952;9.442;2022-10-16T17:48:18;20.70;99.90
9828;DHT22;4953;48.952;9.442;2022-10-16T17:50:45;20.60;99.90
9828;DHT22;4953;48.952;9.442;2022-10-16T17:53:12;20.60;99.90
9828;DHT22;4953;48.952;9.442;2022-10-16T17:55:39;20.50;99.90
9828;DHT22;4953;48.952;9.442;2022-10-16T17:58:09;20.50;99.90
9828;DHT22;4953;48.952;9.442;2022-10-16T18:00:35;20.40;99.90
9828;DHT22;4953;48.952;9.442;2022-10-16T18:03:02;20.40;99.90
9828;DHT22;4953;48.952;9.442;2022-10-16T18:05:29;20.30;99.90
9828;DHT22;4953;48.952;9.442;2022-10-16T18:07:56;20.20;99.90
9828;DHT22;4953;48.952;9.442;2022-10-16T18:10:23;20.20;99.90
9828;DHT22;4953;48.952;9.442;2022-10-16T18:12:50;20.10;99.90
9828;DHT22;4953;48.952;9.442;2022-10-16T18:15:18;20.10;99.90
9828;DHT22;4953;48.952;9.442;2022-10-16T18:17:45;20.00;99.90
9828;DHT22;4953;48.952;9.442;2022-10-16T18:20:12;19.90;99.90
9828;DHT22;4953;48.952;9.442;2022-10-16T18:22:38;19.90;99.90
9828;DHT22;4953;48.952;9.442;2022-10-16T18:25:06;19.90;99.90
9828;DHT22;4953;48.952;9.442;2022-10-16T18:27:34;19.80;99.90
9828;DHT22;4953;48.952;9.442;2022-10-16T18:30:01;19.80;99.90
9828;DHT22;4953;48.952;9.442;2022-10-16T18:32:29;19.80;99.90
9828;DHT22;4953;48.952;9.442;2022-10-16T18:34:56;19.70;99.90
9828;DHT22;4953;48.952;9.442;2022-10-16T18:37:23;19.60;99.90
9828;DHT22;4953;48.952;9.442;2022-10-16T18:39:50;19.60;99.90
9828;DHT22;4953;48.952;9.442;2022-10-16T18:42:17;19.50;99.90
9828;DHT22;4953;48.952;9.442;2022-10-16T18:44:44;19.50;99.90
9828;DHT22;4953;48.952;9.442;2022-10-16T18:47:10;19.50;99.90
9828;DHT22;4953;48.952;9.442;2022-10-16T18:49:39;19.40;99.90
9828;DHT22;4953;48.952;9.442;2022-10-16T18:52:06;19.30;99.90
9828;DHT22;4953;48.952;9.442;2022-10-16T18:54:33;19.30;99.90
9828;DHT22;4953;48.952;9.442;2022-10-16T18:57:00;19.20;99.90
9828;DHT22;4953;48.952;9.442;2022-10-16T18:59:27;19.10;99.90
9828;DHT22;4953;48.952;9.442;2022-10-16T19:01:54;19.10;99.90
9828;DHT22;4953;48.952;9.442;2022-10-16T19:04:22;19.10;99.90
9828;DHT22;4953;48.952;9.442;2022-10-16T19:06:52;19.00;99.90
9828;DHT22;4953;48.952;9.442;2022-10-16T19:09:21;19.00;99.90
9828;DHT22;4953;48.952;9.442;2022-10-16T19:11:48;18.90;99.90
9828;DHT22;4953;48.952;9.442;2022-10-16T19:14:16;18.90;99.90
9828;DHT22;4953;48.952;9.442;2022-10-16T19:16:43;18.90;99.90
9828;DHT22;4953;48.952;9.442;2022-10-16T19:19:16;18.80;99.90
9828;DHT22;4953;48.952;9.442;2022-10-16T19:21:43;18.80;99.90
9828;DHT22;4953;48.952;9.442;2022-10-16T19:24:14;18.70;99.90
9828;DHT22;4953;48.952;9.442;2022-10-16T19:26:41;18.70;99.90
9828;DHT22;4953;48.952;9.442;2022-10-16T19:29:08;18.60;99.90
9828;DHT22;4953;48.952;9.442;2022-10-16T19:31:35;18.50;99.90
9828;DHT22;4953;48.952;9.442;2022-10-16T19:34:03;18.50;99.90
9828;DHT22;4953;48.952;9.442;2022-10-16T19:36:33;18.40;99.90
9828;DHT22;4953;48.952;9.442;2022-10-16T19:39:02;18.40;99.90
9828;DHT22;4953;48.952;9.442;2022-10-16T19:41:31;18.40;99.90
9828;DHT22;4953;48.952;9.442;2022-10-16T19:44:00;18.30;99.90
9828;DHT22;4953;48.952;9.442;2022-10-16T19:46:27;18.30;99.90
9828;DHT22;4953;48.952;9.442;2022-10-16T19:48:55;18.20;99.90
9828;DHT22;4953;48.952;9.442;2022-10-16T19:51:23;18.20;99.90
9828;DHT22;4953;48.952;9.442;2022-10-16T19:53:53;18.20;99.90
9828;DHT22;4953;48.952;9.442;2022-10-16T19:56:22;18.10;99.90
9828;DHT22;4953;48.952;9.442;2022-10-16T19:58:52;18.10;99.90
9828;DHT22;4953;48.952;9.442;2022-10-16T20:01:20;18.00;99.90
9828;DHT22;4953;48.952;9.442;2022-10-16T20:03:48;18.00;99.90
9828;DHT22;4953;48.952;9.442;2022-10-16T20:06:15;17.90;99.90
9828;DHT22;4953;48.952;9.442;2022-10-16T20:08:43;17.90;99.90
9828;DHT22;4953;48.952;9.442;2022-10-16T20:11:14;17.90;99.90
9828;DHT22;4953;48.952;9.442;2022-10-16T20:13:41;17.80;99.90
9828;DHT22;4953;48.952;9.442;2022-10-16T20:16:11;17.80;99.90
9828;DHT22;4953;48.952;9.442;2022-10-16T20:18:39;17.80;99.90
9828;DHT22;4953;48.952;9.442;2022-10-16T20:21:09;17.80;99.90
9828;DHT22;4953;48.952;9.442;2022-10-16T20:23:36;17.70;99.90
9828;DHT22;4953;48.952;9.442;2022-10-16T20:26:03;17.70;99.90
9828;DHT22;4953;48.952;9.442;2022-10-16T20:28:30;17.70;99.90